sensor_id;sensor_type;location;lat;lon;timestamp;P1;P2;P0
60816;PMS5003;51921;51.518;-3.188;2023-07-22T00:01:13;4;4;
60816;PMS5003;51921;51.518;-3.188;2023-07-22T00:03:39;5;5;
60816;PMS5003;51921;51.518;-3.188;2023-07-22T00:06:05;3;3;
60816;PMS5003;51921;51.518;-3.188;2023-07-22T00:08:30;3;3;
60816;PMS5003;51921;51.518;-3.188;2023-07-22T00:10:55;4;4;
60816;PMS5003;51921;51.518;-3.188;2023-07-22T00:13:21;3;3;
60816;PMS5003;51921;51.518;-3.188;2023-07-22T00:15:46;5;3;
60816;PMS5003;51921;51.518;-3.188;2023-07-22T00:18:11;2;2;
60816;PMS5003;51921;51.518;-3.188;2023-07-22T00:20:37;3;3;
60816;PMS5003;51921;51.518;-3.188;2023-07-22T00:23:02;5;4;
60816;PMS5003;51921;51.518;-3.188;2023-07-22T00:25:27;5;5;
60816;PMS5003;51921;51.518;-3.188;2023-07-22T00:27:53;5;5;
60816;PMS5003;51921;51.518;-3.188;2023-07-22T00:30:18;6;5;
60816;PMS5003;51921;51.518;-3.188;2023-07-22T00:32:44;5;4;
60816;PMS5003;51921;51.518;-3.188;2023-07-22T00:35:09;5;5;
60816;PMS5003;51921;51.518;-3.188;2023-07-22T00:37:35;6;6;
60816;PMS5003;51921;51.518;-3.188;2023-07-22T00:40:00;3;3;
60816;PMS5003;51921;51.518;-3.188;2023-07-22T00:42:25;5;5;
60816;PMS5003;51921;51.518;-3.188;2023-07-22T00:44:51;3;3;
60816;PMS5003;51921;51.518;-3.188;2023-07-22T00:47:16;4;3;
60816;PMS5003;51921;51.518;-3.188;2023-07-22T00:49:42;4;4;
60816;PMS5003;51921;51.518;-3.188;2023-07-22T00:52:07;6;5;
60816;PMS5003;51921;51.518;-3.188;2023-07-22T00:54:32;4;3;
60816;PMS5003;51921;51.518;-3.188;2023-07-22T00:56:57;4;4;
60816;PMS5003;51921;51.518;-3.188;2023-07-22T00:59:23;4;4;
60816;PMS5003;51921;51.518;-3.188;2023-07-22T01:01:48;5;5;
60816;PMS5003;51921;51.518;-3.188;2023-07-22T01:04:14;3;3;
60816;PMS5003;51921;51.518;-3.188;2023-07-22T01:06:39;4;4;
60816;PMS5003;51921;51.518;-3.188;2023-07-22T01:09:05;4;4;
60816;PMS5003;51921;51.518;-3.188;2023-07-22T01:11:30;4;4;
60816;PMS5003;51921;51.518;-3.188;2023-07-22T01:13:55;4;3;
60816;PMS5003;51921;51.518;-3.188;2023-07-22T01:16:21;3;3;
60816;PMS5003;51921;51.518;-3.188;2023-07-22T01:18:46;4;4;
60816;PMS5003;51921;51.518;-3.188;2023-07-22T01:21:11;6;4;
60816;PMS5003;51921;51.518;-3.188;2023-07-22T01:23:37;4;4;
60816;PMS5003;51921;51.518;-3.188;2023-07-22T01:26:02;5;3;
60816;PMS5003;51921;51.518;-3.188;2023-07-22T01:28:28;4;4;
60816;PMS5003;51921;51.518;-3.188;2023-07-22T01:30:53;4;3;
60816;PMS5003;51921;51.518;-3.188;2023-07-22T01:33:18;5;4;
60816;PMS5003;51921;51.518;-3.188;2023-07-22T01:35:44;4;3;
60816;PMS5003;51921;51.518;-3.188;2023-07-22T01:38:09;5;5;
60816;PMS5003;51921;51.518;-3.188;2023-07-22T01:40:34;6;4;
60816;PMS5003;51921;51.518;-3.188;2023-07-22T01:43:00;5;5;
60816;PMS5003;51921;51.518;-3.188;2023-07-22T01:45:25;5;4;
60816;PMS5003;51921;51.518;-3.188;2023-07-22T01:47:51;4;4;
60816;PMS5003;51921;51.518;-3.188;2023-07-22T01:50:16;5;5;
60816;PMS5003;51921;51.518;-3.188;2023-07-22T01:52:42;4;4;
60816;PMS5003;51921;51.518;-3.188;2023-07-22T01:55:07;5;4;
60816;PMS5003;51921;51.518;-3.188;2023-07-22T01:57:33;2;2;
60816;PMS5003;51921;51.518;-3.188;2023-07-22T01:59:58;4;4;
60816;PMS5003;51921;51.518;-3.188;2023-07-22T02:02:23;4;4;
60816;PMS5003;51921;51.518;-3.188;2023-07-22T02:04:49;4;3;
60816;PMS5003;51921;51.518;-3.188;2023-07-22T02:07:14;5;5;
60816;PMS5003;51921;51.518;-3.188;2023-07-22T02:09:39;4;4;
60816;PMS5003;51921;51.518;-3.188;2023-07-22T02:12:05;5;4;
60816;PMS5003;51921;51.518;-3.188;2023-07-22T02:14:30;5;5;
60816;PMS5003;51921;51.518;-3.188;2023-07-22T02:16:56;5;5;
60816;PMS5003;51921;51.518;-3.188;2023-07-22T02:19:21;3;3;
60816;PMS5003;51921;51.518;-3.188;2023-07-22T02:21:46;3;3;
60816;PMS5003;51921;51.518;-3.188;2023-07-22T02:24:12;6;5;
60816;PMS5003;51921;51.518;-3.188;2023-07-22T02:26:37;6;6;
60816;PMS5003;51921;51.518;-3.188;2023-07-22T02:29:03;8;7;
60816;PMS5003;51921;51.518;-3.188;2023-07-22T02:31:28;4;4;
60816;PMS5003;51921;51.518;-3.188;2023-07-22T02:33:54;6;6;
60816;PMS5003;51921;51.518;-3.188;2023-07-22T02:36:19;5;5;
60816;PMS5003;51921;51.518;-3.188;2023-07-22T02:38:44;4;4;
60816;PMS5003;51921;51.518;-3.188;2023-07-22T02:41:10;7;7;
60816;PMS5003;51921;51.518;-3.188;2023-07-22T02:43:35;5;4;
60816;PMS5003;51921;51.518;-3.188;2023-07-22T02:46:01;5;5;
60816;PMS5003;51921;51.518;-3.188;2023-07-22T02:48:26;8;7;
60816;PMS5003;51921;51.518;-3.188;2023-07-22T02:50:51;6;6;
60816;PMS5003;51921;51.518;-3.188;2023-07-22T02:53:17;6;6;
60816;PMS5003;51921;51.518;-3.188;2023-07-22T02:55:42;6;6;
60816;PMS5003;51921;51.518;-3.188;2023-07-22T02:58:08;9;9;
60816;PMS5003;51921;51.518;-3.188;2023-07-22T03:00:33;8;8;
60816;PMS5003;51921;51.518;-3.188;2023-07-22T03:02:59;6;6;
60816;PMS5003;51921;51.518;-3.188;2023-07-22T03:05:24;8;7;
60816;PMS5003;51921;51.518;-3.188;2023-07-22T03:07:50;8;8;
60816;PMS5003;51921;51.518;-3.188;2023-07-22T03:10:15;6;6;
60816;PMS5003;51921;51.518;-3.188;2023-07-22T03:12:40;5;5;
60816;PMS5003;51921;51.518;-3.188;2023-07-22T03:15:06;8;8;
60816;PMS5003;51921;51.518;-3.188;2023-07-22T03:17:31;8;6;
60816;PMS5003;51921;51.518;-3.188;2023-07-22T03:19:56;7;7;
60816;PMS5003;51921;51.518;-3.188;2023-07-22T03:22:21;9;9;
60816;PMS5003;51921;51.518;-3.188;2023-07-22T03:24:47;12;10;
60816;PMS5003;51921;51.518;-3.188;2023-07-22T03:27:13;8;8;
60816;PMS5003;51921;51.518;-3.188;2023-07-22T03:29:38;10;9;
60816;PMS5003;51921;51.518;-3.188;2023-07-22T03:32:03;10;9;
60816;PMS5003;51921;51.518;-3.188;2023-07-22T03:34:29;12;10;
60816;PMS5003;51921;51.518;-3.188;2023-07-22T03:36:54;11;11;
60816;PMS5003;51921;51.518;-3.188;2023-07-22T03:39:19;6;6;
60816;PMS5003;51921;51.518;-3.188;2023-07-22T03:41:45;13;12;
60816;PMS5003;51921;51.518;-3.188;2023-07-22T03:44:10;10;9;
60816;PMS5003;51921;51.518;-3.188;2023-07-22T03:46:36;8;7;
60816;PMS5003;51921;51.518;-3.188;2023-07-22T03:49:01;12;9;
60816;PMS5003;51921;51.518;-3.188;2023-07-22T03:51:26;8;7;
60816;PMS5003;51921;51.518;-3.188;2023-07-22T03:53:52;11;10;
60816;PMS5003;51921;51.518;-3.188;2023-07-22T03:56:17;9;6;
60816;PMS5003;51921;51.518;-3.188;2023-07-22T03:58:42;10;9;
60816;PMS5003;51921;51.518;-3.188;2023-07-22T04:01:10;8;7;
60816;PMS5003;51921;51.518;-3.188;2023-07-22T04:03:33;7;6;
60816;PMS5003;51921;51.518;-3.188;2023-07-22T04:05:59;5;5;
60816;PMS5003;51921;51.518;-3.188;2023-07-22T04:08:24;6;5;
60816;PMS5003;51921;51.518;-3.188;2023-07-22T04:10:51;5;5;
60816;PMS5003;51921;51.518;-3.188;2023-07-22T04:13:15;6;6;
60816;PMS5003;51921;51.518;-3.188;2023-07-22T04:15:40;7;6;
60816;PMS5003;51921;51.518;-3.188;2023-07-22T04:18:06;7;6;
60816;PMS5003;51921;51.518;-3.188;2023-07-22T04:20:31;7;6;
60816;PMS5003;51921;51.518;-3.188;2023-07-22T04:22:56;7;7;
60816;PMS5003;51921;51.518;-3.188;2023-07-22T04:25:22;6;6;
60816;PMS5003;51921;51.518;-3.188;2023-07-22T04:27:47;6;6;
60816;PMS5003;51921;51.518;-3.188;2023-07-22T04:30:13;11;8;
60816;PMS5003;51921;51.518;-3.188;2023-07-22T04:32:38;9;8;
60816;PMS5003;51921;51.518;-3.188;2023-07-22T04:35:05;8;7;
60816;PMS5003;51921;51.518;-3.188;2023-07-22T04:37:29;8;8;
60816;PMS5003;51921;51.518;-3.188;2023-07-22T04:39:54;8;8;
60816;PMS5003;51921;51.518;-3.188;2023-07-22T04:42:19;10;9;
60816;PMS5003;51921;51.518;-3.188;2023-07-22T04:44:44;9;9;
60816;PMS5003;51921;51.518;-3.188;2023-07-22T04:47:10;8;8;
60816;PMS5003;51921;51.518;-3.188;2023-07-22T04:49:35;10;10;
60816;PMS5003;51921;51.518;-3.188;2023-07-22T04:52:01;15;14;
60816;PMS5003;51921;51.518;-3.188;2023-07-22T04:54:26;9;9;
60816;PMS5003;51921;51.518;-3.188;2023-07-22T04:56:51;11;11;
60816;PMS5003;51921;51.518;-3.188;2023-07-22T04:59:17;14;12;
60816;PMS5003;51921;51.518;-3.188;2023-07-22T05:01:42;12;11;
60816;PMS5003;51921;51.518;-3.188;2023-07-22T05:04:08;15;13;
60816;PMS5003;51921;51.518;-3.188;2023-07-22T05:06:33;15;13;
60816;PMS5003;51921;51.518;-3.188;2023-07-22T05:08:59;16;15;
60816;PMS5003;51921;51.518;-3.188;2023-07-22T05:11:24;12;9;
60816;PMS5003;51921;51.518;-3.188;2023-07-22T05:13:49;11;11;
60816;PMS5003;51921;51.518;-3.188;2023-07-22T05:16:15;10;9;
60816;PMS5003;51921;51.518;-3.188;2023-07-22T05:18:40;11;10;
60816;PMS5003;51921;51.518;-3.188;2023-07-22T05:21:05;9;8;
60816;PMS5003;51921;51.518;-3.188;2023-07-22T05:23:31;13;12;
60816;PMS5003;51921;51.518;-3.188;2023-07-22T05:25:56;11;10;
60816;PMS5003;51921;51.518;-3.188;2023-07-22T05:28:21;9;9;
60816;PMS5003;51921;51.518;-3.188;2023-07-22T05:30:47;11;10;
60816;PMS5003;51921;51.518;-3.188;2023-07-22T05:33:12;8;8;
60816;PMS5003;51921;51.518;-3.188;2023-07-22T05:35:38;11;10;
60816;PMS5003;51921;51.518;-3.188;2023-07-22T05:38:03;6;6;
60816;PMS5003;51921;51.518;-3.188;2023-07-22T05:40:28;8;8;
60816;PMS5003;51921;51.518;-3.188;2023-07-22T05:42:54;10;10;
60816;PMS5003;51921;51.518;-3.188;2023-07-22T05:45:19;8;8;
60816;PMS5003;51921;51.518;-3.188;2023-07-22T05:47:44;6;6;
60816;PMS5003;51921;51.518;-3.188;2023-07-22T05:50:10;10;9;
60816;PMS5003;51921;51.518;-3.188;2023-07-22T05:52:35;12;12;
60816;PMS5003;51921;51.518;-3.188;2023-07-22T05:55:01;9;9;
60816;PMS5003;51921;51.518;-3.188;2023-07-22T05:57:26;9;9;
60816;PMS5003;51921;51.518;-3.188;2023-07-22T05:59:52;10;10;
60816;PMS5003;51921;51.518;-3.188;2023-07-22T06:02:17;9;9;
60816;PMS5003;51921;51.518;-3.188;2023-07-22T06:04:43;8;8;
60816;PMS5003;51921;51.518;-3.188;2023-07-22T06:07:08;10;9;
60816;PMS5003;51921;51.518;-3.188;2023-07-22T06:09:33;9;8;
60816;PMS5003;51921;51.518;-3.188;2023-07-22T06:11:59;11;10;
60816;PMS5003;51921;51.518;-3.188;2023-07-22T06:14:24;13;11;
60816;PMS5003;51921;51.518;-3.188;2023-07-22T06:16:49;11;9;
60816;PMS5003;51921;51.518;-3.188;2023-07-22T06:19:15;10;10;
60816;PMS5003;51921;51.518;-3.188;2023-07-22T06:21:40;11;11;
60816;PMS5003;51921;51.518;-3.188;2023-07-22T06:24:06;9;9;
60816;PMS5003;51921;51.518;-3.188;2023-07-22T06:26:31;8;7;
60816;PMS5003;51921;51.518;-3.188;2023-07-22T06:28:56;10;10;
60816;PMS5003;51921;51.518;-3.188;2023-07-22T06:31:21;11;10;
60816;PMS5003;51921;51.518;-3.188;2023-07-22T06:33:47;8;7;
60816;PMS5003;51921;51.518;-3.188;2023-07-22T06:36:12;9;9;
60816;PMS5003;51921;51.518;-3.188;2023-07-22T06:38:37;10;9;
60816;PMS5003;51921;51.518;-3.188;2023-07-22T06:41:02;10;8;
60816;PMS5003;51921;51.518;-3.188;2023-07-22T06:43:28;9;9;
60816;PMS5003;51921;51.518;-3.188;2023-07-22T06:45:53;8;8;
60816;PMS5003;51921;51.518;-3.188;2023-07-22T06:48:19;10;10;
60816;PMS5003;51921;51.518;-3.188;2023-07-22T06:50:46;11;9;
60816;PMS5003;51921;51.518;-3.188;2023-07-22T06:53:09;12;10;
60816;PMS5003;51921;51.518;-3.188;2023-07-22T06:55:34;9;8;
60816;PMS5003;51921;51.518;-3.188;2023-07-22T06:58:00;9;9;
60816;PMS5003;51921;51.518;-3.188;2023-07-22T07:00:25;10;9;
60816;PMS5003;51921;51.518;-3.188;2023-07-22T07:02:51;10;10;
60816;PMS5003;51921;51.518;-3.188;2023-07-22T07:05:16;11;11;
60816;PMS5003;51921;51.518;-3.188;2023-07-22T07:07:41;11;11;
60816;PMS5003;51921;51.518;-3.188;2023-07-22T07:10:07;13;11;
60816;PMS5003;51921;51.518;-3.188;2023-07-22T07:12:32;10;9;
60816;PMS5003;51921;51.518;-3.188;2023-07-22T07:14:57;12;10;
60816;PMS5003;51921;51.518;-3.188;2023-07-22T07:17:23;17;15;
60816;PMS5003;51921;51.518;-3.188;2023-07-22T07:19:48;11;9;
60816;PMS5003;51921;51.518;-3.188;2023-07-22T07:22:14;11;11;
60816;PMS5003;51921;51.518;-3.188;2023-07-22T07:24:39;11;10;
60816;PMS5003;51921;51.518;-3.188;2023-07-22T07:27:05;9;8;
60816;PMS5003;51921;51.518;-3.188;2023-07-22T07:29:30;10;9;
60816;PMS5003;51921;51.518;-3.188;2023-07-22T07:31:55;11;9;
60816;PMS5003;51921;51.518;-3.188;2023-07-22T07:34:21;12;11;
60816;PMS5003;51921;51.518;-3.188;2023-07-22T07:36:47;11;10;
60816;PMS5003;51921;51.518;-3.188;2023-07-22T07:39:12;13;10;
60816;PMS5003;51921;51.518;-3.188;2023-07-22T07:41:37;10;9;
60816;PMS5003;51921;51.518;-3.188;2023-07-22T07:44:03;11;11;
60816;PMS5003;51921;51.518;-3.188;2023-07-22T07:46:28;9;9;
60816;PMS5003;51921;51.518;-3.188;2023-07-22T07:48:54;13;12;
60816;PMS5003;51921;51.518;-3.188;2023-07-22T07:51:20;13;13;
60816;PMS5003;51921;51.518;-3.188;2023-07-22T07:53:45;11;10;
60816;PMS5003;51921;51.518;-3.188;2023-07-22T07:56:10;10;9;
60816;PMS5003;51921;51.518;-3.188;2023-07-22T07:58:36;13;12;
60816;PMS5003;51921;51.518;-3.188;2023-07-22T08:01:01;13;12;
60816;PMS5003;51921;51.518;-3.188;2023-07-22T08:03:27;12;12;
60816;PMS5003;51921;51.518;-3.188;2023-07-22T08:05:52;14;14;
60816;PMS5003;51921;51.518;-3.188;2023-07-22T08:08:17;15;14;
60816;PMS5003;51921;51.518;-3.188;2023-07-22T08:10:42;10;10;
60816;PMS5003;51921;51.518;-3.188;2023-07-22T08:13:08;11;11;
60816;PMS5003;51921;51.518;-3.188;2023-07-22T08:15:33;12;11;
60816;PMS5003;51921;51.518;-3.188;2023-07-22T08:17:58;11;11;
60816;PMS5003;51921;51.518;-3.188;2023-07-22T08:20:24;9;9;
60816;PMS5003;51921;51.518;-3.188;2023-07-22T08:22:49;15;14;
60816;PMS5003;51921;51.518;-3.188;2023-07-22T08:25:14;13;12;
60816;PMS5003;51921;51.518;-3.188;2023-07-22T08:27:40;11;11;
60816;PMS5003;51921;51.518;-3.188;2023-07-22T08:30:06;15;14;
60816;PMS5003;51921;51.518;-3.188;2023-07-22T08:32:31;13;12;
60816;PMS5003;51921;51.518;-3.188;2023-07-22T08:34:56;11;11;
60816;PMS5003;51921;51.518;-3.188;2023-07-22T08:37:22;9;9;
60816;PMS5003;51921;51.518;-3.188;2023-07-22T08:39:47;13;13;
60816;PMS5003;51921;51.518;-3.188;2023-07-22T08:42:12;11;11;
60816;PMS5003;51921;51.518;-3.188;2023-07-22T08:44:38;16;14;
60816;PMS5003;51921;51.518;-3.188;2023-07-22T08:47:03;16;15;
60816;PMS5003;51921;51.518;-3.188;2023-07-22T08:49:28;10;9;
60816;PMS5003;51921;51.518;-3.188;2023-07-22T08:51:54;13;12;
60816;PMS5003;51921;51.518;-3.188;2023-07-22T08:54:19;12;12;
60816;PMS5003;51921;51.518;-3.188;2023-07-22T08:56:44;13;13;
60816;PMS5003;51921;51.518;-3.188;2023-07-22T08:59:09;11;10;
60816;PMS5003;51921;51.518;-3.188;2023-07-22T09:01:34;14;13;
60816;PMS5003;51921;51.518;-3.188;2023-07-22T09:04:00;12;12;
60816;PMS5003;51921;51.518;-3.188;2023-07-22T09:06:25;11;11;
60816;PMS5003;51921;51.518;-3.188;2023-07-22T09:08:51;12;11;
60816;PMS5003;51921;51.518;-3.188;2023-07-22T09:11:16;13;12;
60816;PMS5003;51921;51.518;-3.188;2023-07-22T09:13:42;13;12;
60816;PMS5003;51921;51.518;-3.188;2023-07-22T09:16:07;13;12;
60816;PMS5003;51921;51.518;-3.188;2023-07-22T09:18:32;12;11;
60816;PMS5003;51921;51.518;-3.188;2023-07-22T09:20:58;12;11;
60816;PMS5003;51921;51.518;-3.188;2023-07-22T09:25:48;13;11;
60816;PMS5003;51921;51.518;-3.188;2023-07-22T09:28:14;12;12;
60816;PMS5003;51921;51.518;-3.188;2023-07-22T09:30:39;13;12;
60816;PMS5003;51921;51.518;-3.188;2023-07-22T09:33:05;9;9;
60816;PMS5003;51921;51.518;-3.188;2023-07-22T09:35:30;13;13;
60816;PMS5003;51921;51.518;-3.188;2023-07-22T09:37:55;15;14;
60816;PMS5003;51921;51.518;-3.188;2023-07-22T09:40:22;12;11;
60816;PMS5003;51921;51.518;-3.188;2023-07-22T09:42:46;11;10;
60816;PMS5003;51921;51.518;-3.188;2023-07-22T09:45:12;15;12;
60816;PMS5003;51921;51.518;-3.188;2023-07-22T09:47:39;10;9;
60816;PMS5003;51921;51.518;-3.188;2023-07-22T09:50:03;10;9;
60816;PMS5003;51921;51.518;-3.188;2023-07-22T09:52:28;12;11;
60816;PMS5003;51921;51.518;-3.188;2023-07-22T09:54:53;9;9;
60816;PMS5003;51921;51.518;-3.188;2023-07-22T09:57:19;11;10;
60816;PMS5003;51921;51.518;-3.188;2023-07-22T09:59:44;10;9;
60816;PMS5003;51921;51.518;-3.188;2023-07-22T10:02:09;8;8;
60816;PMS5003;51921;51.518;-3.188;2023-07-22T10:04:35;9;8;
60816;PMS5003;51921;51.518;-3.188;2023-07-22T10:07:00;10;9;
60816;PMS5003;51921;51.518;-3.188;2023-07-22T10:09:25;7;7;
60816;PMS5003;51921;51.518;-3.188;2023-07-22T10:11:51;6;6;
60816;PMS5003;51921;51.518;-3.188;2023-07-22T10:14:16;10;9;
60816;PMS5003;51921;51.518;-3.188;2023-07-22T10:16:41;9;8;
60816;PMS5003;51921;51.518;-3.188;2023-07-22T10:19:07;8;8;
60816;PMS5003;51921;51.518;-3.188;2023-07-22T10:21:32;6;6;
60816;PMS5003;51921;51.518;-3.188;2023-07-22T10:23:58;9;9;
60816;PMS5003;51921;51.518;-3.188;2023-07-22T10:26:23;7;7;
60816;PMS5003;51921;51.518;-3.188;2023-07-22T10:28:49;7;7;
60816;PMS5003;51921;51.518;-3.188;2023-07-22T10:31:14;8;7;
60816;PMS5003;51921;51.518;-3.188;2023-07-22T10:33:39;8;7;
60816;PMS5003;51921;51.518;-3.188;2023-07-22T10:36:06;7;7;
60816;PMS5003;51921;51.518;-3.188;2023-07-22T10:38:30;8;7;
60816;PMS5003;51921;51.518;-3.188;2023-07-22T10:40:55;7;7;
60816;PMS5003;51921;51.518;-3.188;2023-07-22T10:43:23;7;5;
60816;PMS5003;51921;51.518;-3.188;2023-07-22T10:45:49;6;5;
60816;PMS5003;51921;51.518;-3.188;2023-07-22T10:48:12;4;4;
60816;PMS5003;51921;51.518;-3.188;2023-07-22T10:50:38;5;4;
60816;PMS5003;51921;51.518;-3.188;2023-07-22T10:53:02;4;4;
60816;PMS5003;51921;51.518;-3.188;2023-07-22T10:55:28;5;5;
60816;PMS5003;51921;51.518;-3.188;2023-07-22T10:57:54;4;4;
60816;PMS5003;51921;51.518;-3.188;2023-07-22T11:00:19;7;5;
60816;PMS5003;51921;51.518;-3.188;2023-07-22T11:02:44;4;4;
60816;PMS5003;51921;51.518;-3.188;2023-07-22T11:05:11;3;3;
60816;PMS5003;51921;51.518;-3.188;2023-07-22T11:07:41;4;2;
60816;PMS5003;51921;51.518;-3.188;2023-07-22T11:12:26;3;3;
60816;PMS5003;51921;51.518;-3.188;2023-07-22T11:14:52;3;3;
60816;PMS5003;51921;51.518;-3.188;2023-07-22T11:17:17;1;1;
60816;PMS5003;51921;51.518;-3.188;2023-07-22T11:19:42;3;3;
60816;PMS5003;51921;51.518;-3.188;2023-07-22T11:22:07;0;0;
60816;PMS5003;51921;51.518;-3.188;2023-07-22T11:24:33;3;1;
60816;PMS5003;51921;51.518;-3.188;2023-07-22T11:26:58;1;1;
60816;PMS5003;51921;51.518;-3.188;2023-07-22T11:29:24;0;0;
60816;PMS5003;51921;51.518;-3.188;2023-07-22T11:31:49;2;2;
60816;PMS5003;51921;51.518;-3.188;2023-07-22T11:34:15;1;1;
60816;PMS5003;51921;51.518;-3.188;2023-07-22T11:36:40;0;0;
60816;PMS5003;51921;51.518;-3.188;2023-07-22T11:39:06;4;2;
60816;PMS5003;51921;51.518;-3.188;2023-07-22T11:41:31;1;1;
60816;PMS5003;51921;51.518;-3.188;2023-07-22T11:43:56;0;0;
60816;PMS5003;51921;51.518;-3.188;2023-07-22T11:46:21;1;1;
60816;PMS5003;51921;51.518;-3.188;2023-07-22T11:48:48;0;0;
60816;PMS5003;51921;51.518;-3.188;2023-07-22T11:51:12;2;1;
60816;PMS5003;51921;51.518;-3.188;2023-07-22T11:53:38;2;2;
60816;PMS5003;51921;51.518;-3.188;2023-07-22T11:56:04;1;1;
60816;PMS5003;51921;51.518;-3.188;2023-07-22T11:58:28;2;1;
60816;PMS5003;51921;51.518;-3.188;2023-07-22T12:03:19;1;1;
60816;PMS5003;51921;51.518;-3.188;2023-07-22T12:05:45;4;3;
60816;PMS5003;51921;51.518;-3.188;2023-07-22T12:08:14;2;2;
60816;PMS5003;51921;51.518;-3.188;2023-07-22T12:10:35;2;2;
60816;PMS5003;51921;51.518;-3.188;2023-07-22T12:13:01;1;1;
60816;PMS5003;51921;51.518;-3.188;2023-07-22T12:15:26;2;2;
60816;PMS5003;51921;51.518;-3.188;2023-07-22T12:17:52;1;0;
60816;PMS5003;51921;51.518;-3.188;2023-07-22T12:20:17;1;1;
60816;PMS5003;51921;51.518;-3.188;2023-07-22T12:22:42;1;1;
60816;PMS5003;51921;51.518;-3.188;2023-07-22T12:25:08;3;2;
60816;PMS5003;51921;51.518;-3.188;2023-07-22T12:27:33;0;0;
60816;PMS5003;51921;51.518;-3.188;2023-07-22T12:29:58;0;0;
60816;PMS5003;51921;51.518;-3.188;2023-07-22T12:32:24;2;2;
60816;PMS5003;51921;51.518;-3.188;2023-07-22T12:34:49;1;1;
60816;PMS5003;51921;51.518;-3.188;2023-07-22T12:37:15;1;1;
60816;PMS5003;51921;51.518;-3.188;2023-07-22T12:39:40;1;1;
60816;PMS5003;51921;51.518;-3.188;2023-07-22T12:42:05;1;1;
60816;PMS5003;51921;51.518;-3.188;2023-07-22T12:44:31;2;1;
60816;PMS5003;51921;51.518;-3.188;2023-07-22T12:46:56;2;2;
60816;PMS5003;51921;51.518;-3.188;2023-07-22T12:49:21;2;2;
60816;PMS5003;51921;51.518;-3.188;2023-07-22T12:51:47;0;0;
60816;PMS5003;51921;51.518;-3.188;2023-07-22T12:54:12;1;1;
60816;PMS5003;51921;51.518;-3.188;2023-07-22T12:56:38;0;0;
60816;PMS5003;51921;51.518;-3.188;2023-07-22T12:59:03;0;0;
60816;PMS5003;51921;51.518;-3.188;2023-07-22T13:01:28;1;1;
60816;PMS5003;51921;51.518;-3.188;2023-07-22T13:03:54;2;2;
60816;PMS5003;51921;51.518;-3.188;2023-07-22T13:06:19;0;0;
60816;PMS5003;51921;51.518;-3.188;2023-07-22T13:08:45;0;0;
60816;PMS5003;51921;51.518;-3.188;2023-07-22T13:11:10;0;0;
60816;PMS5003;51921;51.518;-3.188;2023-07-22T13:13:35;0;0;
60816;PMS5003;51921;51.518;-3.188;2023-07-22T13:16:01;0;0;
60816;PMS5003;51921;51.518;-3.188;2023-07-22T13:18:26;0;0;
60816;PMS5003;51921;51.518;-3.188;2023-07-22T13:20:51;0;0;
60816;PMS5003;51921;51.518;-3.188;2023-07-22T13:23:17;1;1;
60816;PMS5003;51921;51.518;-3.188;2023-07-22T13:25:42;0;0;
60816;PMS5003;51921;51.518;-3.188;2023-07-22T13:28:07;1;1;
60816;PMS5003;51921;51.518;-3.188;2023-07-22T13:30:33;1;1;
60816;PMS5003;51921;51.518;-3.188;2023-07-22T13:32:58;1;1;
60816;PMS5003;51921;51.518;-3.188;2023-07-22T13:35:24;0;0;
60816;PMS5003;51921;51.518;-3.188;2023-07-22T13:37:49;1;1;
60816;PMS5003;51921;51.518;-3.188;2023-07-22T13:40:14;0;0;
60816;PMS5003;51921;51.518;-3.188;2023-07-22T13:42:39;1;1;
60816;PMS5003;51921;51.518;-3.188;2023-07-22T13:45:05;1;1;
60816;PMS5003;51921;51.518;-3.188;2023-07-22T13:47:30;1;1;
60816;PMS5003;51921;51.518;-3.188;2023-07-22T13:49:55;0;0;
60816;PMS5003;51921;51.518;-3.188;2023-07-22T13:52:21;0;0;
60816;PMS5003;51921;51.518;-3.188;2023-07-22T13:54:46;1;0;
60816;PMS5003;51921;51.518;-3.188;2023-07-22T13:57:12;0;0;
60816;PMS5003;51921;51.518;-3.188;2023-07-22T13:59:37;0;0;
60816;PMS5003;51921;51.518;-3.188;2023-07-22T14:02:02;0;0;
60816;PMS5003;51921;51.518;-3.188;2023-07-22T14:04:27;0;0;
60816;PMS5003;51921;51.518;-3.188;2023-07-22T14:06:53;0;0;
60816;PMS5003;51921;51.518;-3.188;2023-07-22T14:09:18;0;0;
60816;PMS5003;51921;51.518;-3.188;2023-07-22T14:11:43;0;0;
60816;PMS5003;51921;51.518;-3.188;2023-07-22T14:14:09;1;1;
60816;PMS5003;51921;51.518;-3.188;2023-07-22T14:16:34;0;0;
60816;PMS5003;51921;51.518;-3.188;2023-07-22T14:19:00;1;1;
60816;PMS5003;51921;51.518;-3.188;2023-07-22T14:21:25;0;0;
60816;PMS5003;51921;51.518;-3.188;2023-07-22T14:23:50;1;0;
60816;PMS5003;51921;51.518;-3.188;2023-07-22T14:26:16;0;0;
60816;PMS5003;51921;51.518;-3.188;2023-07-22T14:28:41;1;1;
60816;PMS5003;51921;51.518;-3.188;2023-07-22T14:31:06;1;1;
60816;PMS5003;51921;51.518;-3.188;2023-07-22T14:33:32;0;0;
60816;PMS5003;51921;51.518;-3.188;2023-07-22T14:35:57;1;0;
60816;PMS5003;51921;51.518;-3.188;2023-07-22T14:38:22;0;0;
60816;PMS5003;51921;51.518;-3.188;2023-07-22T14:40:48;1;0;
60816;PMS5003;51921;51.518;-3.188;2023-07-22T14:43:13;0;0;
60816;PMS5003;51921;51.518;-3.188;2023-07-22T14:45:38;1;1;
60816;PMS5003;51921;51.518;-3.188;2023-07-22T14:48:04;0;0;
60816;PMS5003;51921;51.518;-3.188;2023-07-22T14:50:29;0;0;
60816;PMS5003;51921;51.518;-3.188;2023-07-22T14:52:54;0;0;
60816;PMS5003;51921;51.518;-3.188;2023-07-22T14:55:20;0;0;
60816;PMS5003;51921;51.518;-3.188;2023-07-22T14:57:45;0;0;
60816;PMS5003;51921;51.518;-3.188;2023-07-22T15:00:11;0;0;
60816;PMS5003;51921;51.518;-3.188;2023-07-22T15:02:36;0;0;
60816;PMS5003;51921;51.518;-3.188;2023-07-22T15:05:01;0;0;
60816;PMS5003;51921;51.518;-3.188;2023-07-22T15:07:27;0;0;
60816;PMS5003;51921;51.518;-3.188;2023-07-22T15:09:52;0;0;
60816;PMS5003;51921;51.518;-3.188;2023-07-22T15:12:17;0;0;
60816;PMS5003;51921;51.518;-3.188;2023-07-22T15:14:43;0;0;
60816;PMS5003;51921;51.518;-3.188;2023-07-22T15:17:08;0;0;
60816;PMS5003;51921;51.518;-3.188;2023-07-22T15:19:33;0;0;
60816;PMS5003;51921;51.518;-3.188;2023-07-22T15:21:59;0;0;
60816;PMS5003;51921;51.518;-3.188;2023-07-22T15:24:24;0;0;
60816;PMS5003;51921;51.518;-3.188;2023-07-22T15:26:49;0;0;
60816;PMS5003;51921;51.518;-3.188;2023-07-22T15:29:15;1;0;
60816;PMS5003;51921;51.518;-3.188;2023-07-22T15:31:40;0;0;
60816;PMS5003;51921;51.518;-3.188;2023-07-22T15:34:05;0;0;
60816;PMS5003;51921;51.518;-3.188;2023-07-22T15:36:31;0;0;
60816;PMS5003;51921;51.518;-3.188;2023-07-22T15:38:56;0;0;
60816;PMS5003;51921;51.518;-3.188;2023-07-22T15:41:22;0;0;
60816;PMS5003;51921;51.518;-3.188;2023-07-22T15:43:47;0;0;
60816;PMS5003;51921;51.518;-3.188;2023-07-22T15:46:12;1;1;
60816;PMS5003;51921;51.518;-3.188;2023-07-22T15:48:38;0;0;
60816;PMS5003;51921;51.518;-3.188;2023-07-22T15:51:03;0;0;
60816;PMS5003;51921;51.518;-3.188;2023-07-22T15:53:28;0;0;
60816;PMS5003;51921;51.518;-3.188;2023-07-22T15:55:54;0;0;
60816;PMS5003;51921;51.518;-3.188;2023-07-22T15:58:19;0;0;
60816;PMS5003;51921;51.518;-3.188;2023-07-22T16:00:44;0;0;
60816;PMS5003;51921;51.518;-3.188;2023-07-22T16:03:10;0;0;
60816;PMS5003;51921;51.518;-3.188;2023-07-22T16:05:35;0;0;
60816;PMS5003;51921;51.518;-3.188;2023-07-22T16:08:00;0;0;
60816;PMS5003;51921;51.518;-3.188;2023-07-22T16:10:26;0;0;
60816;PMS5003;51921;51.518;-3.188;2023-07-22T16:12:51;0;0;
60816;PMS5003;51921;51.518;-3.188;2023-07-22T16:15:17;0;0;
60816;PMS5003;51921;51.518;-3.188;2023-07-22T16:17:42;0;0;
60816;PMS5003;51921;51.518;-3.188;2023-07-22T16:20:08;0;0;